TAP1142 LPPR-LEIB
Flight info
| Callsign | TAP1142 |
|---|---|
| Flight time | 1h 16m |
| Altitude | 32000 |
| Route | BELDU DCT ADORO L155 ZMR/N0449F310 DCT PDT/N0447F320 M871 NANDO T257 LASPO Z224 VARUT |
| Aircraft | A20N/M-SDE2E3FGHIRWXY/LB1 |
Departure
| Time | 2026-05-05 18:05 |
|---|---|
| Airport | Francisco de Sá Carneiro Airport (LPPR) |
Arrival
| Time | 2026-05-05 19:21 |
|---|---|
| Airport | Ibiza Airport (LEIB) |
| Time | Latitude | Longitude | Altitude | Speed | Heading |
|---|---|---|---|---|---|
| 2026-05-05 17:43 | 41.23376 | -8.67143 | 244 ft | 0 kts | 78° |
| 2026-05-05 17:52 | 41.23374 | -8.67152 | 244 ft | 2 kts | 78° |
| 2026-05-05 17:53 | 41.23371 | -8.67172 | 244 ft | 2 kts | 78° |
| 2026-05-05 17:53 | 41.23369 | -8.67191 | 243 ft | 2 kts | 78° |
| 2026-05-05 17:53 | 41.23365 | -8.67210 | 242 ft | 2 kts | 78° |
| 2026-05-05 17:53 | 41.23363 | -8.67230 | 241 ft | 2 kts | 78° |
| 2026-05-05 17:54 | 41.23361 | -8.67250 | 241 ft | 2 kts | 94° |
| 2026-05-05 17:54 | 41.23363 | -8.67270 | 240 ft | 2 kts | 106° |
| 2026-05-05 17:54 | 41.23368 | -8.67289 | 239 ft | 2 kts | 108° |
| 2026-05-05 17:54 | 41.23373 | -8.67308 | 238 ft | 2 kts | 108° |
| 2026-05-05 17:55 | 41.23378 | -8.67327 | 238 ft | 2 kts | 115° |
| 2026-05-05 17:55 | 41.23386 | -8.67344 | 237 ft | 2 kts | 130° |
| 2026-05-05 17:55 | 41.23397 | -8.67358 | 237 ft | 2 kts | 144° |
| 2026-05-05 17:55 | 41.23410 | -8.67368 | 236 ft | 2 kts | 158° |
| 2026-05-05 17:56 | 41.23421 | -8.67373 | 236 ft | 1 kts | 169° |
| 2026-05-05 17:56 | 41.23436 | -8.67375 | 236 ft | 2 kts | 171° |
| 2026-05-05 17:56 | 41.23450 | -8.67379 | 236 ft | 2 kts | 170° |
| 2026-05-05 17:56 | 41.23463 | -8.67382 | 236 ft | 0 kts | 171° |
| 2026-05-05 17:57 | 41.23467 | -8.67383 | 236 ft | 0 kts | 169° |
| 2026-05-05 17:59 | 41.23439 | -8.67376 | 236 ft | 7 kts | 168° |
| 2026-05-05 18:00 | 41.23379 | -8.67366 | 236 ft | 10 kts | 189° |
| 2026-05-05 18:00 | 41.23330 | -8.67433 | 234 ft | 4 kts | 256° |
| 2026-05-05 18:00 | 41.23322 | -8.67491 | 231 ft | 8 kts | 260° |
| 2026-05-05 18:00 | 41.23310 | -8.67576 | 228 ft | 7 kts | 258° |
| 2026-05-05 18:01 | 41.23308 | -8.67592 | 227 ft | 0 kts | 259° |
| 2026-05-05 18:02 | 41.23305 | -8.67611 | 227 ft | 6 kts | 259° |
| 2026-05-05 18:02 | 41.23298 | -8.67696 | 223 ft | 11 kts | 282° |
| 2026-05-05 18:02 | 41.23340 | -8.67742 | 221 ft | 0 kts | 347° |
| 2026-05-05 18:04 | 41.23578 | -8.67806 | 217 ft | 77 kts | 349° |
| 2026-05-05 18:04 | 41.24366 | -8.68014 | 202 ft | 149 kts | 348° |
| 2026-05-05 18:05 | 41.25435 | -8.68289 | 771 ft | 160 kts | 345° |
| 2026-05-05 18:05 | 41.26503 | -8.68585 | 1507 ft | 160 kts | 346° |
| 2026-05-05 18:05 | 41.27595 | -8.68889 | 2160 ft | 164 kts | 346° |
| 2026-05-05 18:05 | 41.28769 | -8.69209 | 2652 ft | 180 kts | 347° |
| 2026-05-05 18:06 | 41.30043 | -8.69551 | 3098 ft | 200 kts | 347° |
| 2026-05-05 18:06 | 41.30996 | -8.69806 | 3381 ft | 215 kts | 347° |
| 2026-05-05 18:06 | 41.33053 | -8.70352 | 4110 ft | 239 kts | 348° |
| 2026-05-05 18:06 | 41.34724 | -8.70794 | 4774 ft | 252 kts | 348° |
| 2026-05-05 18:07 | 41.36470 | -8.71256 | 5683 ft | 255 kts | 348° |
| 2026-05-05 18:07 | 41.38207 | -8.71714 | 6603 ft | 258 kts | 348° |
| 2026-05-05 18:07 | 41.39976 | -8.71832 | 7458 ft | 263 kts | 9° |
| 2026-05-05 18:07 | 41.41660 | -8.70857 | 8338 ft | 269 kts | 34° |
| 2026-05-05 18:08 | 41.42883 | -8.68993 | 9112 ft | 279 kts | 59° |
| 2026-05-05 18:08 | 41.43467 | -8.66489 | 9915 ft | 287 kts | 75° |
| 2026-05-05 18:08 | 41.43830 | -8.63890 | 10568 ft | 296 kts | 76° |
| 2026-05-05 18:08 | 41.44159 | -8.61071 | 11001 ft | 315 kts | 81° |
| 2026-05-05 18:09 | 41.44221 | -8.58076 | 11392 ft | 336 kts | 89° |
| 2026-05-05 18:09 | 41.43981 | -8.54887 | 11740 ft | 355 kts | 94° |
| 2026-05-05 18:09 | 41.43632 | -8.51528 | 12060 ft | 372 kts | 95° |
| 2026-05-05 18:09 | 41.43263 | -8.48119 | 12627 ft | 381 kts | 95° |
| 2026-05-05 18:10 | 41.42887 | -8.44610 | 13311 ft | 385 kts | 95° |
| 2026-05-05 18:10 | 41.42513 | -8.41060 | 13993 ft | 389 kts | 94° |
| 2026-05-05 18:10 | 41.42140 | -8.37466 | 14641 ft | 394 kts | 94° |
| 2026-05-05 18:10 | 41.41765 | -8.33828 | 15258 ft | 399 kts | 95° |
| 2026-05-05 18:11 | 41.41384 | -8.30119 | 15856 ft | 404 kts | 95° |
| 2026-05-05 18:11 | 41.41004 | -8.26394 | 16423 ft | 409 kts | 94° |
| 2026-05-05 18:11 | 41.40619 | -8.22611 | 16988 ft | 414 kts | 94° |
| 2026-05-05 18:11 | 41.40226 | -8.18780 | 17534 ft | 419 kts | 94° |
| 2026-05-05 18:12 | 41.39821 | -8.14854 | 18084 ft | 424 kts | 94° |
| 2026-05-05 18:12 | 41.39415 | -8.10944 | 18618 ft | 429 kts | 94° |
| 2026-05-05 18:12 | 41.39010 | -8.07036 | 19106 ft | 434 kts | 94° |
| 2026-05-05 18:12 | 41.38586 | -8.03002 | 19721 ft | 436 kts | 94° |
| 2026-05-05 18:13 | 41.38161 | -7.98970 | 20284 ft | 439 kts | 94° |
| 2026-05-05 18:13 | 41.37733 | -7.94928 | 20765 ft | 444 kts | 94° |
| 2026-05-05 18:13 | 41.37295 | -7.90813 | 21239 ft | 449 kts | 95° |
| 2026-05-05 18:13 | 41.36856 | -7.86697 | 21710 ft | 453 kts | 95° |
| 2026-05-05 18:14 | 41.36415 | -7.82513 | 22168 ft | 457 kts | 93° |
| 2026-05-05 18:14 | 41.36172 | -7.78264 | 22605 ft | 459 kts | 87° |
| 2026-05-05 18:14 | 41.36234 | -7.74033 | 23041 ft | 460 kts | 81° |
| 2026-05-05 18:14 | 41.36558 | -7.69746 | 23494 ft | 462 kts | 78° |
| 2026-05-05 18:15 | 41.36947 | -7.65513 | 23932 ft | 466 kts | 78° |
| 2026-05-05 18:15 | 41.37360 | -7.61142 | 24358 ft | 470 kts | 78° |
| 2026-05-05 18:15 | 41.37765 | -7.56780 | 24784 ft | 474 kts | 78° |
| 2026-05-05 18:15 | 41.38162 | -7.52401 | 25204 ft | 477 kts | 78° |
| 2026-05-05 18:16 | 41.38547 | -7.48060 | 25594 ft | 480 kts | 79° |
| 2026-05-05 18:16 | 41.38938 | -7.43608 | 26050 ft | 482 kts | 79° |
| 2026-05-05 18:16 | 41.39324 | -7.39147 | 26625 ft | 481 kts | 79° |
| 2026-05-05 18:16 | 41.39705 | -7.34726 | 27176 ft | 479 kts | 80° |
| 2026-05-05 18:17 | 41.40080 | -7.30349 | 27636 ft | 480 kts | 80° |
| 2026-05-05 18:17 | 41.40452 | -7.25945 | 28093 ft | 480 kts | 80° |
| 2026-05-05 18:17 | 41.40824 | -7.21525 | 28549 ft | 480 kts | 80° |
| 2026-05-05 18:17 | 41.41198 | -7.17077 | 28998 ft | 480 kts | 80° |
| 2026-05-05 18:18 | 41.41569 | -7.12660 | 29463 ft | 480 kts | 80° |
| 2026-05-05 18:18 | 41.41939 | -7.08249 | 29922 ft | 480 kts | 80° |
| 2026-05-05 18:18 | 41.42301 | -7.03892 | 30371 ft | 479 kts | 80° |
| 2026-05-05 18:18 | 41.42666 | -6.99491 | 30721 ft | 481 kts | 80° |
| 2026-05-05 18:19 | 41.43035 | -6.95018 | 31056 ft | 482 kts | 80° |
| 2026-05-05 18:19 | 41.43398 | -6.90607 | 31367 ft | 484 kts | 80° |
| 2026-05-05 18:19 | 41.43766 | -6.86111 | 31696 ft | 485 kts | 81° |
| 2026-05-05 18:19 | 41.44128 | -6.81659 | 31949 ft | 487 kts | 80° |
| 2026-05-05 18:20 | 41.44490 | -6.77175 | 31982 ft | 494 kts | 81° |
| 2026-05-05 18:20 | 41.45236 | -6.67926 | 31978 ft | 509 kts | 81° |
| 2026-05-05 18:21 | 41.45989 | -6.58467 | 31985 ft | 521 kts | 81° |
| 2026-05-05 18:21 | 41.46744 | -6.48798 | 31979 ft | 527 kts | 81° |
| 2026-05-05 18:22 | 41.47491 | -6.39102 | 31974 ft | 528 kts | 81° |
| 2026-05-05 18:22 | 41.48234 | -6.29330 | 31964 ft | 528 kts | 81° |
| 2026-05-05 18:23 | 41.48980 | -6.19629 | 31963 ft | 529 kts | 81° |
| 2026-05-05 18:23 | 41.49723 | -6.09860 | 31964 ft | 530 kts | 81° |
| 2026-05-05 18:24 | 41.50451 | -6.00098 | 31973 ft | 530 kts | 81° |
| 2026-05-05 18:24 | 41.51164 | -5.90320 | 31966 ft | 531 kts | 81° |
| 2026-05-05 18:25 | 41.51865 | -5.80590 | 31956 ft | 531 kts | 81° |
| 2026-05-05 18:25 | 41.52233 | -5.70747 | 31960 ft | 534 kts | 90° |
| 2026-05-05 18:26 | 41.51015 | -5.61012 | 31961 ft | 537 kts | 106° |
| 2026-05-05 18:26 | 41.48107 | -5.51872 | 31978 ft | 536 kts | 120° |
| 2026-05-05 18:27 | 41.44424 | -5.43278 | 31966 ft | 535 kts | 121° |
| 2026-05-05 18:27 | 41.40690 | -5.34652 | 31973 ft | 535 kts | 121° |
| 2026-05-05 18:28 | 41.35189 | -5.21742 | 31974 ft | 535 kts | 121° |
| 2026-05-05 18:28 | 41.31524 | -5.13138 | 31974 ft | 536 kts | 121° |
| 2026-05-05 18:29 | 41.27861 | -5.04569 | 31974 ft | 536 kts | 121° |
| 2026-05-05 18:29 | 41.24168 | -4.95954 | 31974 ft | 538 kts | 122° |
| 2026-05-05 18:30 | 41.20479 | -4.87380 | 31981 ft | 537 kts | 122° |
| 2026-05-05 18:30 | 41.16757 | -4.78744 | 31990 ft | 538 kts | 122° |
| 2026-05-05 18:31 | 41.13040 | -4.70153 | 31980 ft | 538 kts | 122° |
| 2026-05-05 18:31 | 41.09333 | -4.61603 | 31991 ft | 539 kts | 122° |
| 2026-05-05 18:32 | 41.05579 | -4.52976 | 31993 ft | 540 kts | 122° |
| 2026-05-05 18:32 | 41.01850 | -4.44427 | 31986 ft | 540 kts | 122° |
| 2026-05-05 18:33 | 40.98087 | -4.35821 | 31982 ft | 541 kts | 122° |
| 2026-05-05 18:33 | 40.94301 | -4.27169 | 31984 ft | 541 kts | 123° |
| 2026-05-05 18:34 | 40.90513 | -4.18529 | 31982 ft | 541 kts | 123° |
| 2026-05-05 18:34 | 40.86712 | -4.09954 | 31971 ft | 540 kts | 123° |
| 2026-05-05 18:35 | 40.82918 | -4.01438 | 31972 ft | 540 kts | 123° |
| 2026-05-05 18:35 | 40.79106 | -3.92869 | 31970 ft | 540 kts | 123° |
| 2026-05-05 18:36 | 40.75294 | -3.84304 | 31993 ft | 539 kts | 124° |
| 2026-05-05 18:36 | 40.71511 | -3.75830 | 31985 ft | 540 kts | 124° |
| 2026-05-05 18:37 | 40.67698 | -3.67309 | 31983 ft | 538 kts | 124° |
| 2026-05-05 18:37 | 40.63887 | -3.58812 | 31972 ft | 538 kts | 124° |
| 2026-05-05 18:38 | 40.60094 | -3.50384 | 31963 ft | 537 kts | 124° |
| 2026-05-05 18:38 | 40.56282 | -3.41932 | 31962 ft | 536 kts | 124° |
| 2026-05-05 18:39 | 40.52460 | -3.33485 | 31960 ft | 537 kts | 125° |
| 2026-05-05 18:39 | 40.48663 | -3.25079 | 31957 ft | 537 kts | 125° |
| 2026-05-05 18:40 | 40.44882 | -3.16743 | 31965 ft | 535 kts | 125° |
| 2026-05-05 18:40 | 40.41070 | -3.08383 | 31947 ft | 535 kts | 125° |
| 2026-05-05 18:41 | 40.37217 | -2.99962 | 31948 ft | 535 kts | 125° |
| 2026-05-05 18:41 | 40.33377 | -2.91590 | 31939 ft | 533 kts | 126° |
| 2026-05-05 18:42 | 40.29556 | -2.83282 | 31937 ft | 532 kts | 126° |
| 2026-05-05 18:42 | 40.25710 | -2.74948 | 31958 ft | 532 kts | 126° |
| 2026-05-05 18:43 | 40.21885 | -2.66678 | 31955 ft | 532 kts | 126° |
| 2026-05-05 18:43 | 40.18028 | -2.58359 | 31948 ft | 532 kts | 126° |
| 2026-05-05 18:44 | 40.14196 | -2.50119 | 31959 ft | 532 kts | 126° |
| 2026-05-05 18:44 | 40.10337 | -2.41834 | 31979 ft | 530 kts | 126° |
| 2026-05-05 18:45 | 40.06501 | -2.33632 | 31961 ft | 530 kts | 127° |
| 2026-05-05 18:45 | 40.02653 | -2.25401 | 31968 ft | 530 kts | 127° |
| 2026-05-05 18:46 | 39.98828 | -2.17197 | 31964 ft | 531 kts | 125° |
| 2026-05-05 18:46 | 39.95262 | -2.08796 | 31965 ft | 531 kts | 123° |
| 2026-05-05 18:47 | 39.91699 | -2.00338 | 31961 ft | 532 kts | 124° |
| 2026-05-05 18:47 | 39.88144 | -1.91979 | 31963 ft | 530 kts | 124° |
| 2026-05-05 18:48 | 39.84560 | -1.83616 | 31958 ft | 530 kts | 122° |
| 2026-05-05 18:48 | 39.83130 | -1.79135 | 31958 ft | 539 kts | 110° |
| 2026-05-05 18:48 | 39.82097 | -1.74372 | 31962 ft | 541 kts | 108° |
| 2026-05-05 18:49 | 39.80245 | -1.64892 | 31927 ft | 538 kts | 108° |
| 2026-05-05 18:49 | 39.79330 | -1.60266 | 31520 ft | 531 kts | 108° |
| 2026-05-05 18:49 | 39.78388 | -1.55618 | 31083 ft | 529 kts | 108° |
| 2026-05-05 18:50 | 39.76487 | -1.46443 | 30965 ft | 529 kts | 108° |
| 2026-05-05 18:50 | 39.74515 | -1.37066 | 30950 ft | 541 kts | 108° |
| 2026-05-05 18:51 | 39.72534 | -1.27664 | 30949 ft | 544 kts | 109° |
| 2026-05-05 18:51 | 39.70517 | -1.18122 | 30950 ft | 544 kts | 109° |
| 2026-05-05 18:52 | 39.68498 | -1.08641 | 30943 ft | 545 kts | 109° |
| 2026-05-05 18:52 | 39.66467 | -0.99153 | 30949 ft | 544 kts | 110° |
| 2026-05-05 18:53 | 39.64437 | -0.89717 | 30945 ft | 543 kts | 110° |
| 2026-05-05 18:53 | 39.62401 | -0.80294 | 30933 ft | 542 kts | 109° |
| 2026-05-05 18:54 | 39.60354 | -0.70855 | 30917 ft | 542 kts | 110° |
| 2026-05-05 18:54 | 39.58293 | -0.61418 | 30914 ft | 543 kts | 110° |
| 2026-05-05 18:55 | 39.56232 | -0.52008 | 30900 ft | 541 kts | 110° |
| 2026-05-05 18:55 | 39.54163 | -0.42612 | 30897 ft | 541 kts | 110° |
| 2026-05-05 18:56 | 39.52103 | -0.33289 | 30888 ft | 540 kts | 110° |
| 2026-05-05 18:56 | 39.50052 | -0.23976 | 30879 ft | 530 kts | 111° |
| 2026-05-05 18:57 | 39.49049 | -0.19429 | 30881 ft | 511 kts | 111° |
| 2026-05-05 18:57 | 39.48083 | -0.15070 | 30886 ft | 502 kts | 111° |
| 2026-05-05 18:57 | 39.47114 | -0.10726 | 30514 ft | 505 kts | 111° |
| 2026-05-05 18:57 | 39.46141 | -0.06379 | 29741 ft | 505 kts | 111° |
| 2026-05-05 18:58 | 39.45179 | -0.02089 | 29012 ft | 505 kts | 111° |
| 2026-05-05 18:58 | 39.44202 | 0.02258 | 28295 ft | 504 kts | 110° |
| 2026-05-05 18:58 | 39.43221 | 0.06618 | 27549 ft | 503 kts | 110° |
| 2026-05-05 18:58 | 39.42247 | 0.10928 | 26816 ft | 503 kts | 111° |
| 2026-05-05 18:59 | 39.41265 | 0.15282 | 26095 ft | 501 kts | 110° |
| 2026-05-05 18:59 | 39.40304 | 0.19530 | 25574 ft | 494 kts | 110° |
| 2026-05-05 18:59 | 39.39344 | 0.23770 | 25079 ft | 488 kts | 110° |
| 2026-05-05 18:59 | 39.38394 | 0.27966 | 24577 ft | 483 kts | 111° |
| 2026-05-05 19:00 | 39.37455 | 0.32097 | 24072 ft | 478 kts | 110° |
| 2026-05-05 19:00 | 39.36508 | 0.36235 | 23575 ft | 474 kts | 110° |
| 2026-05-05 19:00 | 39.35587 | 0.40267 | 23074 ft | 470 kts | 110° |
| 2026-05-05 19:00 | 39.34660 | 0.44313 | 22578 ft | 466 kts | 110° |
| 2026-05-05 19:01 | 39.33755 | 0.48259 | 22082 ft | 462 kts | 110° |
| 2026-05-05 19:01 | 39.32839 | 0.52253 | 21586 ft | 458 kts | 110° |
| 2026-05-05 19:01 | 39.31933 | 0.56187 | 21096 ft | 454 kts | 110° |
| 2026-05-05 19:01 | 39.31040 | 0.60065 | 20602 ft | 451 kts | 110° |
| 2026-05-05 19:02 | 39.30147 | 0.63938 | 20126 ft | 447 kts | 111° |
| 2026-05-05 19:02 | 39.29269 | 0.67757 | 19392 ft | 440 kts | 111° |
| 2026-05-05 19:02 | 39.28410 | 0.71472 | 18070 ft | 440 kts | 111° |
| 2026-05-05 19:02 | 39.27537 | 0.75232 | 16779 ft | 436 kts | 111° |
| 2026-05-05 19:03 | 39.26674 | 0.78944 | 15614 ft | 428 kts | 110° |
| 2026-05-05 19:03 | 39.25841 | 0.82516 | 14505 ft | 418 kts | 110° |
| 2026-05-05 19:03 | 39.25013 | 0.86067 | 13382 ft | 409 kts | 109° |
| 2026-05-05 19:03 | 39.24210 | 0.89505 | 12283 ft | 400 kts | 109° |
| 2026-05-05 19:04 | 39.23422 | 0.92877 | 11199 ft | 391 kts | 108° |
| 2026-05-05 19:04 | 39.22649 | 0.96172 | 10189 ft | 380 kts | 108° |
| 2026-05-05 19:04 | 39.21907 | 0.99343 | 9471 ft | 362 kts | 108° |
| 2026-05-05 19:04 | 39.21198 | 1.02367 | 9032 ft | 339 kts | 107° |
| 2026-05-05 19:05 | 39.20539 | 1.05174 | 8843 ft | 316 kts | 107° |
| 2026-05-05 19:05 | 39.19923 | 1.07799 | 8713 ft | 304 kts | 108° |
| 2026-05-05 19:05 | 39.19309 | 1.10399 | 8589 ft | 302 kts | 107° |
| 2026-05-05 19:05 | 39.18701 | 1.12964 | 8463 ft | 301 kts | 107° |
| 2026-05-05 19:06 | 39.18086 | 1.15569 | 8323 ft | 299 kts | 107° |
| 2026-05-05 19:06 | 39.17484 | 1.18118 | 8173 ft | 298 kts | 107° |
| 2026-05-05 19:06 | 39.16873 | 1.20699 | 8010 ft | 297 kts | 107° |
| 2026-05-05 19:06 | 39.16270 | 1.23248 | 7816 ft | 297 kts | 107° |
| 2026-05-05 19:07 | 39.15668 | 1.25785 | 7555 ft | 296 kts | 107° |
| 2026-05-05 19:07 | 39.15071 | 1.28288 | 7275 ft | 295 kts | 107° |
| 2026-05-05 19:07 | 39.14470 | 1.30814 | 6978 ft | 293 kts | 107° |
| 2026-05-05 19:07 | 39.13877 | 1.33308 | 6672 ft | 291 kts | 107° |
| 2026-05-05 19:08 | 39.13285 | 1.35789 | 6367 ft | 290 kts | 106° |
| 2026-05-05 19:08 | 39.12698 | 1.38254 | 6074 ft | 288 kts | 106° |
| 2026-05-05 19:08 | 39.12117 | 1.40689 | 5774 ft | 286 kts | 106° |
| 2026-05-05 19:08 | 39.11530 | 1.43152 | 5473 ft | 284 kts | 107° |
| 2026-05-05 19:09 | 39.10952 | 1.45567 | 5179 ft | 282 kts | 107° |
| 2026-05-05 19:09 | 39.10383 | 1.47947 | 4884 ft | 281 kts | 107° |
| 2026-05-05 19:09 | 39.09807 | 1.50343 | 4590 ft | 279 kts | 107° |
| 2026-05-05 19:09 | 39.09240 | 1.52699 | 4299 ft | 277 kts | 107° |
| 2026-05-05 19:10 | 39.08669 | 1.55077 | 4039 ft | 274 kts | 108° |
| 2026-05-05 19:10 | 39.08126 | 1.57337 | 3980 ft | 260 kts | 108° |
| 2026-05-05 19:10 | 39.07601 | 1.59519 | 3975 ft | 245 kts | 108° |
| 2026-05-05 19:10 | 39.07186 | 1.61606 | 3960 ft | 243 kts | 93° |
| 2026-05-05 19:11 | 39.07520 | 1.63692 | 3968 ft | 242 kts | 62° |
| 2026-05-05 19:11 | 39.08334 | 1.65592 | 3977 ft | 244 kts | 59° |
| 2026-05-05 19:11 | 39.09174 | 1.67517 | 3980 ft | 245 kts | 60° |
| 2026-05-05 19:11 | 39.09982 | 1.69419 | 3972 ft | 245 kts | 60° |
| 2026-05-05 19:12 | 39.10785 | 1.71348 | 3947 ft | 244 kts | 61° |
| 2026-05-05 19:12 | 39.11579 | 1.73275 | 3966 ft | 244 kts | 61° |
| 2026-05-05 19:12 | 39.12306 | 1.75242 | 3933 ft | 241 kts | 75° |
| 2026-05-05 19:12 | 39.12262 | 1.77341 | 3870 ft | 235 kts | 115° |
| 2026-05-05 19:13 | 39.11243 | 1.78894 | 3902 ft | 230 kts | 152° |
| 2026-05-05 19:13 | 39.09804 | 1.79798 | 3941 ft | 232 kts | 158° |
| 2026-05-05 19:13 | 39.08329 | 1.80676 | 3956 ft | 233 kts | 157° |
| 2026-05-05 19:13 | 39.06799 | 1.81271 | 3945 ft | 227 kts | 185° |
| 2026-05-05 19:14 | 39.05364 | 1.80677 | 3897 ft | 218 kts | 220° |
| 2026-05-05 19:14 | 39.04427 | 1.79174 | 3928 ft | 217 kts | 245° |
| 2026-05-05 19:14 | 39.03777 | 1.77402 | 3955 ft | 219 kts | 245° |
| 2026-05-05 19:14 | 39.03106 | 1.75633 | 3970 ft | 220 kts | 245° |
| 2026-05-05 19:15 | 39.02425 | 1.73881 | 3927 ft | 219 kts | 244° |
| 2026-05-05 19:15 | 39.01734 | 1.72143 | 3953 ft | 220 kts | 244° |
| 2026-05-05 19:15 | 39.01031 | 1.70411 | 3970 ft | 220 kts | 243° |
| 2026-05-05 19:15 | 39.00311 | 1.68659 | 3980 ft | 220 kts | 243° |
| 2026-05-05 19:16 | 38.99593 | 1.66928 | 3969 ft | 221 kts | 243° |
| 2026-05-05 19:16 | 38.98869 | 1.65190 | 3758 ft | 218 kts | 243° |
| 2026-05-05 19:16 | 38.98159 | 1.63491 | 3562 ft | 217 kts | 242° |
| 2026-05-05 19:16 | 38.97447 | 1.61785 | 3363 ft | 216 kts | 242° |
| 2026-05-05 19:17 | 38.96736 | 1.60081 | 3162 ft | 215 kts | 242° |
| 2026-05-05 19:17 | 38.96032 | 1.58387 | 2963 ft | 215 kts | 243° |
| 2026-05-05 19:17 | 38.95340 | 1.56720 | 2764 ft | 211 kts | 242° |
| 2026-05-05 19:17 | 38.94673 | 1.55113 | 2695 ft | 197 kts | 242° |
| 2026-05-05 19:18 | 38.94056 | 1.53628 | 2606 ft | 181 kts | 242° |
| 2026-05-05 19:18 | 38.93480 | 1.52240 | 2362 ft | 168 kts | 242° |
| 2026-05-05 19:18 | 38.92952 | 1.50969 | 2121 ft | 156 kts | 242° |
| 2026-05-05 19:18 | 38.92459 | 1.49779 | 1881 ft | 143 kts | 241° |
| 2026-05-05 19:19 | 38.92001 | 1.48677 | 1697 ft | 140 kts | 241° |
| 2026-05-05 19:19 | 38.91538 | 1.47572 | 1524 ft | 140 kts | 241° |
| 2026-05-05 19:19 | 38.91079 | 1.46479 | 1413 ft | 140 kts | 241° |
| 2026-05-05 19:19 | 38.90622 | 1.45369 | 1302 ft | 140 kts | 242° |
| 2026-05-05 19:20 | 38.90171 | 1.44265 | 1141 ft | 139 kts | 241° |
| 2026-05-05 19:20 | 38.89719 | 1.43168 | 941 ft | 139 kts | 242° |
| 2026-05-05 19:20 | 38.89263 | 1.42090 | 733 ft | 139 kts | 242° |
| 2026-05-05 19:20 | 38.88809 | 1.41002 | 474 ft | 138 kts | 241° |
| 2026-05-05 19:21 | 38.88350 | 1.39918 | 284 ft | 136 kts | 242° |
| 2026-05-05 19:21 | 38.87920 | 1.38864 | 103 ft | 133 kts | 243° |
| 2026-05-05 19:21 | 38.87516 | 1.37875 | 29 ft | 99 kts | 240° |
| 2026-05-05 19:21 | 38.87312 | 1.37378 | 29 ft | 42 kts | 243° |
| 2026-05-05 19:22 | 38.87259 | 1.37157 | 28 ft | 19 kts | 265° |
| 2026-05-05 19:22 | 38.87260 | 1.36987 | 28 ft | 16 kts | 270° |
| 2026-05-05 19:22 | 38.87270 | 1.36892 | 28 ft | 10 kts | 301° |
| 2026-05-05 19:22 | 38.87330 | 1.36836 | 28 ft | 11 kts | 333° |
| 2026-05-05 19:23 | 38.87398 | 1.36790 | 28 ft | 7 kts | 335° |
| 2026-05-05 19:23 | 38.87442 | 1.36777 | 28 ft | 7 kts | 11° |
| 2026-05-05 19:23 | 38.87477 | 1.36791 | 28 ft | 3 kts | 18° |
| 2026-05-05 19:23 | 38.87502 | 1.36800 | 28 ft | 3 kts | 17° |
| 2026-05-05 19:24 | 38.87510 | 1.36803 | 28 ft | 0 kts | 17° |
| 2026-05-05 19:24 | 38.87511 | 1.36803 | 28 ft | 0 kts | 17° |